sensor_id;sensor_type;location;lat;lon;timestamp;temperature;humidity
30572;DHT22;17348;50.948;10.696;2023-08-06T00:02:28;15.60;99.90
30572;DHT22;17348;50.948;10.696;2023-08-06T00:05:32;15.60;99.90
30572;DHT22;17348;50.948;10.696;2023-08-06T00:08:34;15.60;99.90
30572;DHT22;17348;50.948;10.696;2023-08-06T00:11:36;15.70;99.90
30572;DHT22;17348;50.948;10.696;2023-08-06T00:14:39;15.70;99.90
30572;DHT22;17348;50.948;10.696;2023-08-06T00:17:41;15.70;99.90
30572;DHT22;17348;50.948;10.696;2023-08-06T00:20:45;15.60;99.90
30572;DHT22;17348;50.948;10.696;2023-08-06T00:23:47;15.60;99.90
30572;DHT22;17348;50.948;10.696;2023-08-06T00:26:49;15.50;99.90
30572;DHT22;17348;50.948;10.696;2023-08-06T00:29:51;15.50;99.90
30572;DHT22;17348;50.948;10.696;2023-08-06T00:32:54;15.50;99.90
30572;DHT22;17348;50.948;10.696;2023-08-06T00:35:58;15.40;99.90
30572;DHT22;17348;50.948;10.696;2023-08-06T00:39:00;15.40;99.90
30572;DHT22;17348;50.948;10.696;2023-08-06T00:42:03;15.40;99.90
30572;DHT22;17348;50.948;10.696;2023-08-06T00:45:06;15.40;99.90
30572;DHT22;17348;50.948;10.696;2023-08-06T00:48:09;15.30;99.90
30572;DHT22;17348;50.948;10.696;2023-08-06T00:51:13;15.30;99.90
30572;DHT22;17348;50.948;10.696;2023-08-06T00:54:16;15.30;99.90
30572;DHT22;17348;50.948;10.696;2023-08-06T00:57:18;15.30;99.90
30572;DHT22;17348;50.948;10.696;2023-08-06T01:00:22;15.20;99.90
30572;DHT22;17348;50.948;10.696;2023-08-06T01:03:26;15.20;99.90
30572;DHT22;17348;50.948;10.696;2023-08-06T01:06:39;15.20;99.90
30572;DHT22;17348;50.948;10.696;2023-08-06T01:09:50;15.20;99.90
30572;DHT22;17348;50.948;10.696;2023-08-06T01:13:04;15.20;99.90
30572;DHT22;17348;50.948;10.696;2023-08-06T01:16:09;15.10;99.90
30572;DHT22;17348;50.948;10.696;2023-08-06T01:19:21;15.10;99.90
30572;DHT22;17348;50.948;10.696;2023-08-06T01:22:25;15.10;99.90
30572;DHT22;17348;50.948;10.696;2023-08-06T01:25:32;15.00;99.90
30572;DHT22;17348;50.948;10.696;2023-08-06T01:28:40;15.00;99.90
30572;DHT22;17348;50.948;10.696;2023-08-06T01:31:48;15.00;99.90
30572;DHT22;17348;50.948;10.696;2023-08-06T01:34:54;15.10;99.90
30572;DHT22;17348;50.948;10.696;2023-08-06T01:37:59;15.10;99.90
30572;DHT22;17348;50.948;10.696;2023-08-06T01:41:01;15.10;99.90
30572;DHT22;17348;50.948;10.696;2023-08-06T01:44:04;15.10;99.90
30572;DHT22;17348;50.948;10.696;2023-08-06T01:47:07;15.10;99.90
30572;DHT22;17348;50.948;10.696;2023-08-06T01:50:09;15.10;99.90
30572;DHT22;17348;50.948;10.696;2023-08-06T01:53:13;15.00;99.90
30572;DHT22;17348;50.948;10.696;2023-08-06T01:56:15;15.00;99.90
30572;DHT22;17348;50.948;10.696;2023-08-06T01:59:17;15.00;99.90
30572;DHT22;17348;50.948;10.696;2023-08-06T02:02:20;15.00;99.90
30572;DHT22;17348;50.948;10.696;2023-08-06T02:05:22;15.00;99.90
30572;DHT22;17348;50.948;10.696;2023-08-06T02:08:27;15.00;99.90
30572;DHT22;17348;50.948;10.696;2023-08-06T02:11:29;14.90;99.90
30572;DHT22;17348;50.948;10.696;2023-08-06T02:14:32;14.90;99.90
30572;DHT22;17348;50.948;10.696;2023-08-06T02:17:34;14.90;99.90
30572;DHT22;17348;50.948;10.696;2023-08-06T02:20:36;14.90;99.90
30572;DHT22;17348;50.948;10.696;2023-08-06T02:23:40;14.90;99.90
30572;DHT22;17348;50.948;10.696;2023-08-06T02:26:42;14.90;99.90
30572;DHT22;17348;50.948;10.696;2023-08-06T02:29:45;14.90;99.90
30572;DHT22;17348;50.948;10.696;2023-08-06T02:32:47;14.80;99.90
30572;DHT22;17348;50.948;10.696;2023-08-06T02:35:50;14.90;99.90
30572;DHT22;17348;50.948;10.696;2023-08-06T02:38:53;14.80;99.90
30572;DHT22;17348;50.948;10.696;2023-08-06T02:41:56;14.90;99.90
30572;DHT22;17348;50.948;10.696;2023-08-06T02:44:58;14.80;99.90
30572;DHT22;17348;50.948;10.696;2023-08-06T02:48:00;14.80;99.90
30572;DHT22;17348;50.948;10.696;2023-08-06T02:51:03;14.80;99.90
30572;DHT22;17348;50.948;10.696;2023-08-06T02:54:07;14.70;99.90
30572;DHT22;17348;50.948;10.696;2023-08-06T02:57:09;14.60;99.90
30572;DHT22;17348;50.948;10.696;2023-08-06T03:00:14;14.70;99.90
30572;DHT22;17348;50.948;10.696;2023-08-06T03:03:17;14.70;99.90
30572;DHT22;17348;50.948;10.696;2023-08-06T03:06:19;14.60;99.90
30572;DHT22;17348;50.948;10.696;2023-08-06T03:09:23;14.60;99.90
30572;DHT22;17348;50.948;10.696;2023-08-06T03:12:25;14.60;99.90
30572;DHT22;17348;50.948;10.696;2023-08-06T03:15:28;14.60;99.90
30572;DHT22;17348;50.948;10.696;2023-08-06T03:18:30;14.60;99.90
30572;DHT22;17348;50.948;10.696;2023-08-06T03:21:32;14.60;99.90
30572;DHT22;17348;50.948;10.696;2023-08-06T03:24:36;14.60;99.90
30572;DHT22;17348;50.948;10.696;2023-08-06T03:27:38;14.60;99.90
30572;DHT22;17348;50.948;10.696;2023-08-06T03:30:41;14.60;99.90
30572;DHT22;17348;50.948;10.696;2023-08-06T03:33:43;14.60;99.90
30572;DHT22;17348;50.948;10.696;2023-08-06T03:36:45;14.60;99.90
30572;DHT22;17348;50.948;10.696;2023-08-06T03:39:49;14.60;99.90
30572;DHT22;17348;50.948;10.696;2023-08-06T03:42:51;14.60;99.90
30572;DHT22;17348;50.948;10.696;2023-08-06T03:45:54;14.60;99.90
30572;DHT22;17348;50.948;10.696;2023-08-06T03:48:56;14.60;99.90
30572;DHT22;17348;50.948;10.696;2023-08-06T03:51:58;14.60;99.90
30572;DHT22;17348;50.948;10.696;2023-08-06T03:55:02;14.60;99.90
30572;DHT22;17348;50.948;10.696;2023-08-06T03:58:04;14.60;99.90
30572;DHT22;17348;50.948;10.696;2023-08-06T04:01:07;14.60;99.90
30572;DHT22;17348;50.948;10.696;2023-08-06T04:04:09;14.60;99.90
30572;DHT22;17348;50.948;10.696;2023-08-06T04:07:11;14.50;99.90
30572;DHT22;17348;50.948;10.696;2023-08-06T04:10:15;14.60;99.90
30572;DHT22;17348;50.948;10.696;2023-08-06T04:13:17;14.60;99.90
30572;DHT22;17348;50.948;10.696;2023-08-06T04:16:20;14.60;99.90
30572;DHT22;17348;50.948;10.696;2023-08-06T04:19:22;14.70;99.90
30572;DHT22;17348;50.948;10.696;2023-08-06T04:22:25;14.70;99.90
30572;DHT22;17348;50.948;10.696;2023-08-06T04:25:29;14.80;99.90
30572;DHT22;17348;50.948;10.696;2023-08-06T04:28:31;14.80;99.90
30572;DHT22;17348;50.948;10.696;2023-08-06T04:31:33;14.80;99.90
30572;DHT22;17348;50.948;10.696;2023-08-06T04:34:36;14.80;99.90
30572;DHT22;17348;50.948;10.696;2023-08-06T04:37:38;14.90;99.90
30572;DHT22;17348;50.948;10.696;2023-08-06T04:40:42;14.90;99.90
30572;DHT22;17348;50.948;10.696;2023-08-06T04:43:45;14.90;99.90
30572;DHT22;17348;50.948;10.696;2023-08-06T04:46:47;14.90;99.90
30572;DHT22;17348;50.948;10.696;2023-08-06T04:49:49;14.90;99.90
30572;DHT22;17348;50.948;10.696;2023-08-06T04:52:52;14.90;99.90
30572;DHT22;17348;50.948;10.696;2023-08-06T04:55:55;14.90;99.90
30572;DHT22;17348;50.948;10.696;2023-08-06T04:58:58;14.90;99.90
30572;DHT22;17348;50.948;10.696;2023-08-06T05:02:00;14.90;99.90
30572;DHT22;17348;50.948;10.696;2023-08-06T05:05:03;15.00;99.90
30572;DHT22;17348;50.948;10.696;2023-08-06T05:08:05;15.00;99.90
30572;DHT22;17348;50.948;10.696;2023-08-06T05:11:09;15.00;99.90
30572;DHT22;17348;50.948;10.696;2023-08-06T05:14:11;15.00;99.90
30572;DHT22;17348;50.948;10.696;2023-08-06T05:17:14;15.00;99.90
30572;DHT22;17348;50.948;10.696;2023-08-06T05:20:16;15.00;99.90
30572;DHT22;17348;50.948;10.696;2023-08-06T05:23:19;15.00;99.90
30572;DHT22;17348;50.948;10.696;2023-08-06T05:26:29;15.00;99.90
30572;DHT22;17348;50.948;10.696;2023-08-06T05:29:31;15.10;99.90
30572;DHT22;17348;50.948;10.696;2023-08-06T05:32:34;15.10;99.90
30572;DHT22;17348;50.948;10.696;2023-08-06T05:35:36;15.20;99.90
30572;DHT22;17348;50.948;10.696;2023-08-06T05:38:38;15.20;99.90
30572;DHT22;17348;50.948;10.696;2023-08-06T05:41:42;15.30;99.90
30572;DHT22;17348;50.948;10.696;2023-08-06T05:44:44;15.30;99.90
30572;DHT22;17348;50.948;10.696;2023-08-06T05:47:48;15.40;99.90
30572;DHT22;17348;50.948;10.696;2023-08-06T05:50:51;15.30;99.90
30572;DHT22;17348;50.948;10.696;2023-08-06T05:53:54;15.40;99.90
30572;DHT22;17348;50.948;10.696;2023-08-06T05:56:57;15.40;99.90
30572;DHT22;17348;50.948;10.696;2023-08-06T06:00:00;15.50;99.90
30572;DHT22;17348;50.948;10.696;2023-08-06T06:03:03;15.50;99.90
30572;DHT22;17348;50.948;10.696;2023-08-06T06:06:05;15.60;99.90
30572;DHT22;17348;50.948;10.696;2023-08-06T06:09:08;15.60;99.90
30572;DHT22;17348;50.948;10.696;2023-08-06T06:12:11;15.60;99.90
30572;DHT22;17348;50.948;10.696;2023-08-06T06:15:14;15.60;99.90
30572;DHT22;17348;50.948;10.696;2023-08-06T06:18:16;15.60;99.90
30572;DHT22;17348;50.948;10.696;2023-08-06T06:21:18;15.70;99.90
30572;DHT22;17348;50.948;10.696;2023-08-06T06:24:21;15.80;99.90
30572;DHT22;17348;50.948;10.696;2023-08-06T06:27:24;15.80;99.90
30572;DHT22;17348;50.948;10.696;2023-08-06T06:30:28;15.80;99.90
30572;DHT22;17348;50.948;10.696;2023-08-06T06:33:30;15.80;99.90
30572;DHT22;17348;50.948;10.696;2023-08-06T06:36:33;15.80;99.90
30572;DHT22;17348;50.948;10.696;2023-08-06T06:39:35;15.90;99.90
30572;DHT22;17348;50.948;10.696;2023-08-06T06:42:39;15.90;99.90
30572;DHT22;17348;50.948;10.696;2023-08-06T06:45:41;16.00;99.90
30572;DHT22;17348;50.948;10.696;2023-08-06T06:48:43;16.10;99.90
30572;DHT22;17348;50.948;10.696;2023-08-06T06:51:45;16.10;99.90
30572;DHT22;17348;50.948;10.696;2023-08-06T06:54:48;16.20;99.90
30572;DHT22;17348;50.948;10.696;2023-08-06T06:57:52;16.30;99.90
30572;DHT22;17348;50.948;10.696;2023-08-06T07:00:54;16.30;99.90
30572;DHT22;17348;50.948;10.696;2023-08-06T07:03:56;16.40;99.90
30572;DHT22;17348;50.948;10.696;2023-08-06T07:06:59;16.50;99.90
30572;DHT22;17348;50.948;10.696;2023-08-06T07:10:01;16.70;99.90
30572;DHT22;17348;50.948;10.696;2023-08-06T07:13:05;16.80;99.90
30572;DHT22;17348;50.948;10.696;2023-08-06T07:16:07;16.80;99.90
30572;DHT22;17348;50.948;10.696;2023-08-06T07:19:09;16.90;99.90
30572;DHT22;17348;50.948;10.696;2023-08-06T07:22:12;17.00;99.90
30572;DHT22;17348;50.948;10.696;2023-08-06T07:25:14;17.10;99.90
30572;DHT22;17348;50.948;10.696;2023-08-06T07:28:18;17.30;99.90
30572;DHT22;17348;50.948;10.696;2023-08-06T07:31:20;17.50;99.90
30572;DHT22;17348;50.948;10.696;2023-08-06T07:34:23;17.70;99.90
30572;DHT22;17348;50.948;10.696;2023-08-06T07:37:25;17.80;99.90
30572;DHT22;17348;50.948;10.696;2023-08-06T07:40:29;18.00;99.90
30572;DHT22;17348;50.948;10.696;2023-08-06T07:43:32;18.00;99.90
30572;DHT22;17348;50.948;10.696;2023-08-06T07:46:36;18.10;99.90
30572;DHT22;17348;50.948;10.696;2023-08-06T07:49:39;18.20;99.90
30572;DHT22;17348;50.948;10.696;2023-08-06T07:52:42;18.30;99.90
30572;DHT22;17348;50.948;10.696;2023-08-06T07:55:49;18.40;99.90
30572;DHT22;17348;50.948;10.696;2023-08-06T07:58:52;18.30;99.90
30572;DHT22;17348;50.948;10.696;2023-08-06T08:01:55;18.30;99.90
30572;DHT22;17348;50.948;10.696;2023-08-06T08:04:57;18.30;99.90
30572;DHT22;17348;50.948;10.696;2023-08-06T08:07:59;18.30;99.90
30572;DHT22;17348;50.948;10.696;2023-08-06T08:11:01;18.40;99.90
30572;DHT22;17348;50.948;10.696;2023-08-06T08:14:05;18.60;99.90
30572;DHT22;17348;50.948;10.696;2023-08-06T08:17:08;18.60;99.90
30572;DHT22;17348;50.948;10.696;2023-08-06T08:20:10;18.60;99.90
30572;DHT22;17348;50.948;10.696;2023-08-06T08:23:13;18.60;99.90
30572;DHT22;17348;50.948;10.696;2023-08-06T08:26:15;18.80;99.90
30572;DHT22;17348;50.948;10.696;2023-08-06T08:29:20;18.80;99.90
30572;DHT22;17348;50.948;10.696;2023-08-06T08:32:22;18.80;99.90
30572;DHT22;17348;50.948;10.696;2023-08-06T08:35:25;18.80;99.90
30572;DHT22;17348;50.948;10.696;2023-08-06T08:38:28;18.70;99.90
30572;DHT22;17348;50.948;10.696;2023-08-06T08:41:31;18.70;99.90
30572;DHT22;17348;50.948;10.696;2023-08-06T08:44:35;18.80;99.90
30572;DHT22;17348;50.948;10.696;2023-08-06T08:47:40;18.70;99.90
30572;DHT22;17348;50.948;10.696;2023-08-06T08:50:45;18.80;99.90
30572;DHT22;17348;50.948;10.696;2023-08-06T08:53:48;18.80;99.90
30572;DHT22;17348;50.948;10.696;2023-08-06T08:56:56;18.90;99.90
30572;DHT22;17348;50.948;10.696;2023-08-06T09:00:06;18.80;99.90
30572;DHT22;17348;50.948;10.696;2023-08-06T09:03:09;18.80;99.90
30572;DHT22;17348;50.948;10.696;2023-08-06T09:06:12;18.90;99.90
30572;DHT22;17348;50.948;10.696;2023-08-06T09:09:18;19.00;99.90
30572;DHT22;17348;50.948;10.696;2023-08-06T09:12:22;19.10;99.90
30572;DHT22;17348;50.948;10.696;2023-08-06T09:15:26;19.30;99.90
30572;DHT22;17348;50.948;10.696;2023-08-06T09:18:30;19.40;99.90
30572;DHT22;17348;50.948;10.696;2023-08-06T09:21:32;19.50;99.90
30572;DHT22;17348;50.948;10.696;2023-08-06T09:24:38;19.70;99.90
30572;DHT22;17348;50.948;10.696;2023-08-06T09:27:40;19.80;99.90
30572;DHT22;17348;50.948;10.696;2023-08-06T09:30:49;19.90;99.90
30572;DHT22;17348;50.948;10.696;2023-08-06T09:33:52;20.00;99.90
30572;DHT22;17348;50.948;10.696;2023-08-06T09:36:54;20.10;99.90
30572;DHT22;17348;50.948;10.696;2023-08-06T09:39:57;20.30;99.90
30572;DHT22;17348;50.948;10.696;2023-08-06T09:42:59;20.40;99.90
30572;DHT22;17348;50.948;10.696;2023-08-06T09:46:11;20.60;99.90
30572;DHT22;17348;50.948;10.696;2023-08-06T09:49:14;20.80;99.90
30572;DHT22;17348;50.948;10.696;2023-08-06T09:52:16;21.00;99.90
30572;DHT22;17348;50.948;10.696;2023-08-06T09:55:18;21.20;99.90
30572;DHT22;17348;50.948;10.696;2023-08-06T09:58:21;21.20;99.90
30572;DHT22;17348;50.948;10.696;2023-08-06T10:01:26;21.20;99.90
30572;DHT22;17348;50.948;10.696;2023-08-06T10:04:29;21.30;99.90
30572;DHT22;17348;50.948;10.696;2023-08-06T10:07:31;21.30;99.90
30572;DHT22;17348;50.948;10.696;2023-08-06T10:10:34;21.70;99.90
30572;DHT22;17348;50.948;10.696;2023-08-06T10:13:38;22.00;99.90
30572;DHT22;17348;50.948;10.696;2023-08-06T10:16:42;22.50;99.90
30572;DHT22;17348;50.948;10.696;2023-08-06T10:19:46;22.80;99.90
30572;DHT22;17348;50.948;10.696;2023-08-06T10:23:01;22.90;99.90
30572;DHT22;17348;50.948;10.696;2023-08-06T10:26:03;22.70;99.90
30572;DHT22;17348;50.948;10.696;2023-08-06T10:29:36;22.80;99.90
30572;DHT22;17348;50.948;10.696;2023-08-06T10:32:48;23.00;99.90
30572;DHT22;17348;50.948;10.696;2023-08-06T10:35:51;23.30;99.90
30572;DHT22;17348;50.948;10.696;2023-08-06T10:39:03;23.30;99.90
30572;DHT22;17348;50.948;10.696;2023-08-06T10:42:05;23.50;99.90
30572;DHT22;17348;50.948;10.696;2023-08-06T10:45:14;23.60;99.90
30572;DHT22;17348;50.948;10.696;2023-08-06T10:48:28;23.70;99.90
30572;DHT22;17348;50.948;10.696;2023-08-06T10:51:31;23.80;99.90
30572;DHT22;17348;50.948;10.696;2023-08-06T10:54:33;23.80;99.90
30572;DHT22;17348;50.948;10.696;2023-08-06T10:57:36;23.60;99.90
30572;DHT22;17348;50.948;10.696;2023-08-06T11:00:38;23.50;99.90
30572;DHT22;17348;50.948;10.696;2023-08-06T11:03:44;23.50;99.90
30572;DHT22;17348;50.948;10.696;2023-08-06T11:06:52;23.60;99.90
30572;DHT22;17348;50.948;10.696;2023-08-06T11:10:01;23.20;99.90
30572;DHT22;17348;50.948;10.696;2023-08-06T11:13:04;22.70;99.90
30572;DHT22;17348;50.948;10.696;2023-08-06T11:16:09;22.50;99.90
30572;DHT22;17348;50.948;10.696;2023-08-06T11:19:12;22.10;99.90
30572;DHT22;17348;50.948;10.696;2023-08-06T11:22:16;21.90;99.90
30572;DHT22;17348;50.948;10.696;2023-08-06T11:25:20;21.70;99.90
30572;DHT22;17348;50.948;10.696;2023-08-06T11:28:24;21.60;99.90
30572;DHT22;17348;50.948;10.696;2023-08-06T11:31:26;21.70;99.90
30572;DHT22;17348;50.948;10.696;2023-08-06T11:34:30;21.80;99.90
30572;DHT22;17348;50.948;10.696;2023-08-06T11:37:33;21.80;99.90
30572;DHT22;17348;50.948;10.696;2023-08-06T11:40:36;21.90;99.90
30572;DHT22;17348;50.948;10.696;2023-08-06T11:43:38;21.90;99.90
30572;DHT22;17348;50.948;10.696;2023-08-06T11:46:50;21.60;99.90
30572;DHT22;17348;50.948;10.696;2023-08-06T11:49:54;21.20;99.90
30572;DHT22;17348;50.948;10.696;2023-08-06T11:52:57;21.10;99.90
30572;DHT22;17348;50.948;10.696;2023-08-06T11:56:01;21.00;99.90
30572;DHT22;17348;50.948;10.696;2023-08-06T11:59:03;21.00;99.90
30572;DHT22;17348;50.948;10.696;2023-08-06T12:02:09;21.00;99.90
30572;DHT22;17348;50.948;10.696;2023-08-06T12:05:14;21.00;99.90
30572;DHT22;17348;50.948;10.696;2023-08-06T12:08:16;20.90;99.90
30572;DHT22;17348;50.948;10.696;2023-08-06T12:11:21;20.80;99.90
30572;DHT22;17348;50.948;10.696;2023-08-06T12:14:23;20.60;99.90
30572;DHT22;17348;50.948;10.696;2023-08-06T12:17:26;20.50;99.90
30572;DHT22;17348;50.948;10.696;2023-08-06T12:20:30;20.50;99.90
30572;DHT22;17348;50.948;10.696;2023-08-06T12:23:32;20.50;99.90
30572;DHT22;17348;50.948;10.696;2023-08-06T12:26:34;20.60;99.90
30572;DHT22;17348;50.948;10.696;2023-08-06T12:29:37;20.70;99.90
30572;DHT22;17348;50.948;10.696;2023-08-06T12:32:42;20.70;99.90
30572;DHT22;17348;50.948;10.696;2023-08-06T12:35:46;20.70;99.90
30572;DHT22;17348;50.948;10.696;2023-08-06T12:38:48;20.70;99.90
30572;DHT22;17348;50.948;10.696;2023-08-06T12:41:50;20.80;99.90
30572;DHT22;17348;50.948;10.696;2023-08-06T12:44:53;20.70;99.90
30572;DHT22;17348;50.948;10.696;2023-08-06T12:47:55;20.60;99.90
30572;DHT22;17348;50.948;10.696;2023-08-06T12:50:59;20.60;99.90
30572;DHT22;17348;50.948;10.696;2023-08-06T12:54:01;20.60;99.90
30572;DHT22;17348;50.948;10.696;2023-08-06T12:57:04;20.60;99.90
30572;DHT22;17348;50.948;10.696;2023-08-06T13:00:07;20.80;99.90
30572;DHT22;17348;50.948;10.696;2023-08-06T13:03:10;20.90;99.90
30572;DHT22;17348;50.948;10.696;2023-08-06T13:06:13;21.10;99.90
30572;DHT22;17348;50.948;10.696;2023-08-06T13:09:16;21.30;99.90
30572;DHT22;17348;50.948;10.696;2023-08-06T13:12:18;21.40;99.90
30572;DHT22;17348;50.948;10.696;2023-08-06T13:15:23;21.40;99.90
30572;DHT22;17348;50.948;10.696;2023-08-06T13:18:26;21.60;99.90
30572;DHT22;17348;50.948;10.696;2023-08-06T13:21:33;21.50;99.90
30572;DHT22;17348;50.948;10.696;2023-08-06T13:24:36;21.20;99.90
30572;DHT22;17348;50.948;10.696;2023-08-06T13:27:38;20.90;99.90
30572;DHT22;17348;50.948;10.696;2023-08-06T13:30:41;20.80;99.90
30572;DHT22;17348;50.948;10.696;2023-08-06T13:33:43;20.50;99.90
30572;DHT22;17348;50.948;10.696;2023-08-06T13:36:47;20.20;99.90
30572;DHT22;17348;50.948;10.696;2023-08-06T13:39:49;20.10;99.90
30572;DHT22;17348;50.948;10.696;2023-08-06T13:42:52;20.10;99.90
30572;DHT22;17348;50.948;10.696;2023-08-06T13:45:54;20.00;99.90
30572;DHT22;17348;50.948;10.696;2023-08-06T13:48:56;20.00;99.90
30572;DHT22;17348;50.948;10.696;2023-08-06T13:52:00;20.10;99.90
30572;DHT22;17348;50.948;10.696;2023-08-06T13:55:02;20.10;99.90
30572;DHT22;17348;50.948;10.696;2023-08-06T13:58:05;20.00;99.90
30572;DHT22;17348;50.948;10.696;2023-08-06T14:01:10;20.00;99.90
30572;DHT22;17348;50.948;10.696;2023-08-06T14:04:14;20.20;99.90
30572;DHT22;17348;50.948;10.696;2023-08-06T14:07:17;20.50;99.90
30572;DHT22;17348;50.948;10.696;2023-08-06T14:10:20;20.70;99.90
30572;DHT22;17348;50.948;10.696;2023-08-06T14:13:22;21.00;99.90
30572;DHT22;17348;50.948;10.696;2023-08-06T14:16:24;21.10;99.90
30572;DHT22;17348;50.948;10.696;2023-08-06T14:19:27;21.10;99.90
30572;DHT22;17348;50.948;10.696;2023-08-06T14:22:31;20.90;99.90
30572;DHT22;17348;50.948;10.696;2023-08-06T14:25:33;20.70;99.90
30572;DHT22;17348;50.948;10.696;2023-08-06T14:28:36;20.50;99.90
30572;DHT22;17348;50.948;10.696;2023-08-06T14:31:38;20.40;99.90
30572;DHT22;17348;50.948;10.696;2023-08-06T14:34:40;20.30;99.90
30572;DHT22;17348;50.948;10.696;2023-08-06T14:37:44;20.20;99.90
30572;DHT22;17348;50.948;10.696;2023-08-06T14:40:46;20.10;99.90
30572;DHT22;17348;50.948;10.696;2023-08-06T14:43:49;20.00;99.90
30572;DHT22;17348;50.948;10.696;2023-08-06T14:46:51;20.00;99.90
30572;DHT22;17348;50.948;10.696;2023-08-06T14:49:53;19.80;99.90
30572;DHT22;17348;50.948;10.696;2023-08-06T14:52:57;19.80;99.90
30572;DHT22;17348;50.948;10.696;2023-08-06T14:56:01;19.60;99.90
30572;DHT22;17348;50.948;10.696;2023-08-06T14:59:04;19.60;99.90
30572;DHT22;17348;50.948;10.696;2023-08-06T15:02:06;19.60;99.90
30572;DHT22;17348;50.948;10.696;2023-08-06T15:05:08;19.70;99.90
30572;DHT22;17348;50.948;10.696;2023-08-06T15:08:12;19.90;99.90
30572;DHT22;17348;50.948;10.696;2023-08-06T15:11:14;20.10;99.90
30572;DHT22;17348;50.948;10.696;2023-08-06T15:14:17;20.20;99.90
30572;DHT22;17348;50.948;10.696;2023-08-06T15:17:19;20.20;99.90
30572;DHT22;17348;50.948;10.696;2023-08-06T15:20:22;20.20;99.90
30572;DHT22;17348;50.948;10.696;2023-08-06T15:23:26;20.40;99.90
30572;DHT22;17348;50.948;10.696;2023-08-06T15:26:28;20.60;99.90
30572;DHT22;17348;50.948;10.696;2023-08-06T15:29:31;20.60;99.90
30572;DHT22;17348;50.948;10.696;2023-08-06T15:32:33;20.70;99.90
30572;DHT22;17348;50.948;10.696;2023-08-06T15:35:35;20.80;99.90
30572;DHT22;17348;50.948;10.696;2023-08-06T15:38:39;20.70;99.90
30572;DHT22;17348;50.948;10.696;2023-08-06T15:41:41;20.50;99.90
30572;DHT22;17348;50.948;10.696;2023-08-06T15:44:44;20.10;99.90
30572;DHT22;17348;50.948;10.696;2023-08-06T15:47:46;19.90;99.90
30572;DHT22;17348;50.948;10.696;2023-08-06T15:50:49;19.70;99.90
30572;DHT22;17348;50.948;10.696;2023-08-06T15:53:52;19.50;99.90
30572;DHT22;17348;50.948;10.696;2023-08-06T15:56:55;19.40;99.90
30572;DHT22;17348;50.948;10.696;2023-08-06T15:59:57;19.40;99.90
30572;DHT22;17348;50.948;10.696;2023-08-06T16:03:00;19.50;99.90
30572;DHT22;17348;50.948;10.696;2023-08-06T16:06:02;19.40;99.90
30572;DHT22;17348;50.948;10.696;2023-08-06T16:09:06;19.50;99.90
30572;DHT22;17348;50.948;10.696;2023-08-06T16:12:09;19.50;99.90
30572;DHT22;17348;50.948;10.696;2023-08-06T16:15:11;19.50;99.90
30572;DHT22;17348;50.948;10.696;2023-08-06T16:18:16;19.40;99.90
30572;DHT22;17348;50.948;10.696;2023-08-06T16:21:18;19.30;99.90
30572;DHT22;17348;50.948;10.696;2023-08-06T16:24:22;19.30;99.90
30572;DHT22;17348;50.948;10.696;2023-08-06T16:27:25;19.20;99.90
30572;DHT22;17348;50.948;10.696;2023-08-06T16:30:27;19.10;99.90
30572;DHT22;17348;50.948;10.696;2023-08-06T16:33:32;19.00;99.90
30572;DHT22;17348;50.948;10.696;2023-08-06T16:36:34;18.90;99.90
30572;DHT22;17348;50.948;10.696;2023-08-06T16:39:38;18.90;99.90
30572;DHT22;17348;50.948;10.696;2023-08-06T16:42:40;18.90;99.90
30572;DHT22;17348;50.948;10.696;2023-08-06T16:45:43;18.80;99.90
30572;DHT22;17348;50.948;10.696;2023-08-06T16:48:46;18.80;99.90
30572;DHT22;17348;50.948;10.696;2023-08-06T16:51:48;18.70;99.90
30572;DHT22;17348;50.948;10.696;2023-08-06T16:54:52;18.60;99.90
30572;DHT22;17348;50.948;10.696;2023-08-06T16:57:54;18.50;99.90
30572;DHT22;17348;50.948;10.696;2023-08-06T17:00:56;18.30;99.90
30572;DHT22;17348;50.948;10.696;2023-08-06T17:04:04;18.30;99.90
30572;DHT22;17348;50.948;10.696;2023-08-06T17:07:06;18.20;99.90
30572;DHT22;17348;50.948;10.696;2023-08-06T17:10:10;18.10;99.90
30572;DHT22;17348;50.948;10.696;2023-08-06T17:13:12;18.00;99.90
30572;DHT22;17348;50.948;10.696;2023-08-06T17:16:15;18.00;99.90
30572;DHT22;17348;50.948;10.696;2023-08-06T17:19:17;17.90;99.90
30572;DHT22;17348;50.948;10.696;2023-08-06T17:22:20;17.80;99.90
30572;DHT22;17348;50.948;10.696;2023-08-06T17:25:23;17.70;99.90
30572;DHT22;17348;50.948;10.696;2023-08-06T17:28:26;17.50;99.90
30572;DHT22;17348;50.948;10.696;2023-08-06T17:31:28;17.30;99.90
30572;DHT22;17348;50.948;10.696;2023-08-06T17:34:30;17.20;99.90
30572;DHT22;17348;50.948;10.696;2023-08-06T17:37:33;17.00;99.90
30572;DHT22;17348;50.948;10.696;2023-08-06T17:40:37;16.80;99.90
30572;DHT22;17348;50.948;10.696;2023-08-06T17:43:39;16.70;99.90
30572;DHT22;17348;50.948;10.696;2023-08-06T17:46:41;16.60;99.90
30572;DHT22;17348;50.948;10.696;2023-08-06T17:49:44;16.50;99.90
30572;DHT22;17348;50.948;10.696;2023-08-06T17:52:46;16.40;99.90
30572;DHT22;17348;50.948;10.696;2023-08-06T17:55:50;16.40;99.90
30572;DHT22;17348;50.948;10.696;2023-08-06T17:58:52;16.30;99.90
30572;DHT22;17348;50.948;10.696;2023-08-06T18:01:54;16.30;99.90
30572;DHT22;17348;50.948;10.696;2023-08-06T18:04:57;16.20;99.90
30572;DHT22;17348;50.948;10.696;2023-08-06T18:07:59;16.20;99.90
30572;DHT22;17348;50.948;10.696;2023-08-06T18:11:03;16.20;99.90
30572;DHT22;17348;50.948;10.696;2023-08-06T18:14:05;16.20;99.90
30572;DHT22;17348;50.948;10.696;2023-08-06T18:17:07;16.10;99.90
30572;DHT22;17348;50.948;10.696;2023-08-06T18:20:10;16.10;99.90
30572;DHT22;17348;50.948;10.696;2023-08-06T18:23:13;16.00;99.90
30572;DHT22;17348;50.948;10.696;2023-08-06T18:26:17;16.00;99.90
30572;DHT22;17348;50.948;10.696;2023-08-06T18:29:19;16.00;99.90
30572;DHT22;17348;50.948;10.696;2023-08-06T18:32:21;16.00;99.90
30572;DHT22;17348;50.948;10.696;2023-08-06T18:35:24;16.00;99.90
30572;DHT22;17348;50.948;10.696;2023-08-06T18:38:26;15.90;99.90
30572;DHT22;17348;50.948;10.696;2023-08-06T18:41:30;15.80;99.90
30572;DHT22;17348;50.948;10.696;2023-08-06T18:44:32;15.70;99.90
30572;DHT22;17348;50.948;10.696;2023-08-06T18:47:36;15.70;99.90
30572;DHT22;17348;50.948;10.696;2023-08-06T18:50:38;15.60;99.90
30572;DHT22;17348;50.948;10.696;2023-08-06T18:53:40;15.50;99.90
30572;DHT22;17348;50.948;10.696;2023-08-06T18:56:44;15.50;99.90
30572;DHT22;17348;50.948;10.696;2023-08-06T18:59:46;15.40;99.90